createdAt,value
2023-02-13T00:00:49.172Z,99.90
2023-02-13T00:03:35.359Z,99.90
2023-02-13T00:06:21.970Z,99.90
2023-02-13T00:09:11.060Z,99.80
2023-02-13T00:11:57.056Z,99.70
2023-02-13T00:14:43.130Z,99.50
2023-02-13T00:17:29.258Z,99.50
2023-02-13T00:20:15.128Z,99.60
2023-02-13T00:23:01.166Z,99.60
2023-02-13T00:25:47.051Z,99.60
2023-02-13T00:28:33.579Z,99.50
2023-02-13T00:31:22.936Z,99.40
2023-02-13T00:34:09.476Z,99.40
2023-02-13T00:36:55.523Z,99.20
2023-02-13T00:39:42.272Z,99.30
2023-02-13T00:42:29.587Z,99.00
2023-02-13T00:45:15.478Z,99.30
2023-02-13T00:48:01.305Z,99.50
2023-02-13T00:50:47.787Z,99.60
2023-02-13T00:53:34.565Z,99.90
2023-02-13T00:56:20.998Z,99.90
2023-02-13T00:59:06.942Z,99.90
2023-02-13T01:01:52.963Z,99.90
2023-02-13T01:04:39.314Z,99.90
2023-02-13T01:07:25.302Z,99.70
2023-02-13T01:10:11.461Z,99.70
2023-02-13T01:12:57.452Z,99.60
2023-02-13T01:15:43.305Z,99.70
2023-02-13T01:18:29.417Z,99.50
2023-02-13T01:21:18.311Z,99.60
2023-02-13T01:24:06.222Z,99.70
2023-02-13T01:26:55.161Z,99.50
2023-02-13T01:29:41.272Z,99.70
2023-02-13T01:32:27.647Z,99.90
2023-02-13T01:35:15.134Z,99.90
2023-02-13T01:38:01.475Z,99.90
2023-02-13T01:40:53.132Z,99.90
2023-02-13T01:43:51.723Z,99.90
2023-02-13T01:46:43.658Z,99.90
2023-02-13T01:49:29.790Z,99.90
2023-02-13T01:52:17.712Z,99.80
2023-02-13T01:55:06.277Z,99.80
2023-02-13T01:57:58.119Z,99.80
2023-02-13T02:00:49.759Z,99.80
2023-02-13T02:03:37.871Z,99.90
2023-02-13T02:06:32.132Z,99.80
2023-02-13T02:09:22.368Z,99.90
2023-02-13T02:12:34.066Z,99.90
2023-02-13T02:15:21.283Z,99.80
2023-02-13T02:18:15.272Z,99.90
2023-02-13T02:21:10.355Z,99.90
2023-02-13T02:24:24.051Z,99.90
2023-02-13T02:27:10.195Z,99.90
2023-02-13T02:30:29.238Z,99.60
2023-02-13T02:33:18.297Z,99.60
2023-02-13T02:36:04.783Z,99.60
2023-02-13T02:38:57.367Z,99.70
2023-02-13T02:42:00.966Z,99.80
2023-02-13T02:45:06.092Z,99.70
2023-02-13T02:48:23.893Z,99.70
2023-02-13T02:51:33.140Z,99.90
2023-02-13T02:54:51.107Z,99.80
2023-02-13T02:58:05.634Z,99.80
2023-02-13T03:01:13.785Z,99.70
2023-02-13T03:04:19.342Z,99.60
2023-02-13T03:07:09.530Z,99.50
2023-02-13T03:10:24.574Z,99.40
2023-02-13T03:13:33.047Z,99.50
2023-02-13T03:16:40.889Z,99.80
2023-02-13T03:19:54.960Z,99.80
2023-02-13T03:22:52.819Z,99.70
2023-02-13T03:25:44.163Z,99.90
2023-02-13T03:29:07.733Z,99.90
2023-02-13T03:32:01.517Z,99.90
2023-02-13T03:35:16.331Z,99.90
2023-02-13T03:38:13.100Z,99.80
2023-02-13T03:41:21.955Z,99.90
2023-02-13T03:44:23.258Z,99.60
2023-02-13T03:47:10.793Z,99.50
2023-02-13T03:50:05.767Z,99.20
2023-02-13T03:53:06.403Z,99.00
2023-02-13T03:56:13.812Z,99.20
2023-02-13T03:59:17.456Z,99.30
2023-02-13T04:02:13.568Z,99.30
2023-02-13T04:05:16.490Z,99.40
2023-02-13T04:08:02.983Z,99.70
2023-02-13T04:11:05.564Z,99.80
2023-02-13T04:14:01.312Z,99.90
2023-02-13T04:16:52.299Z,99.80
2023-02-13T04:19:38.498Z,99.80
2023-02-13T04:22:24.764Z,99.90
2023-02-13T04:25:16.817Z,99.80
2023-02-13T04:28:03.461Z,99.90
2023-02-13T04:30:50.706Z,99.90
2023-02-13T04:33:36.802Z,99.90
2023-02-13T04:36:22.906Z,99.80
2023-02-13T04:39:09.259Z,99.90
2023-02-13T04:41:55.383Z,99.90
2023-02-13T04:44:41.418Z,99.70
2023-02-13T04:47:27.325Z,99.70
2023-02-13T04:50:13.383Z,99.80
2023-02-13T04:52:59.357Z,99.70
2023-02-13T04:55:45.197Z,99.70
2023-02-13T04:58:31.233Z,99.90
2023-02-13T05:01:17.826Z,99.50
2023-02-13T05:04:04.051Z,99.40
2023-02-13T05:06:50.092Z,99.50
2023-02-13T05:09:36.046Z,99.40
2023-02-13T05:12:22.142Z,99.60
2023-02-13T05:15:09.127Z,99.50
2023-02-13T05:17:55.053Z,99.60
2023-02-13T05:20:41.315Z,99.40
2023-02-13T05:23:27.613Z,99.40
2023-02-13T05:26:14.136Z,99.30
2023-02-13T05:29:18.815Z,99.30
2023-02-13T05:32:05.152Z,99.40
2023-02-13T05:34:51.493Z,99.60
2023-02-13T05:37:38.610Z,99.50
2023-02-13T05:40:24.672Z,99.50
2023-02-13T05:43:10.525Z,99.70
2023-02-13T05:46:07.812Z,99.50
2023-02-13T05:48:53.750Z,99.70
2023-02-13T05:51:39.727Z,99.90
2023-02-13T05:54:25.667Z,99.90
2023-02-13T05:57:11.863Z,99.90
2023-02-13T05:59:57.962Z,99.90
2023-02-13T06:02:43.907Z,99.90
2023-02-13T06:05:29.946Z,99.90
2023-02-13T06:08:15.907Z,99.70
2023-02-13T06:11:02.274Z,99.70
2023-02-13T06:13:48.763Z,99.80
2023-02-13T06:16:34.741Z,99.60
2023-02-13T06:19:20.688Z,99.90
2023-02-13T06:22:06.707Z,99.90
2023-02-13T06:24:52.582Z,99.90
2023-02-13T06:27:38.595Z,99.90
2023-02-13T06:30:24.618Z,99.90
2023-02-13T06:33:10.436Z,99.90
2023-02-13T06:35:56.578Z,99.90
2023-02-13T06:38:43.089Z,99.80
2023-02-13T06:41:29.219Z,99.60
2023-02-13T06:44:15.129Z,99.70
2023-02-13T06:47:01.002Z,99.60
2023-02-13T06:49:46.930Z,99.50
2023-02-13T06:52:32.995Z,99.70
2023-02-13T06:55:20.738Z,99.60
2023-02-13T06:58:07.804Z,99.60
2023-02-13T07:00:54.592Z,99.70
2023-02-13T07:03:41.120Z,99.90
2023-02-13T07:06:27.164Z,99.50
2023-02-13T07:09:13.549Z,99.40
2023-02-13T07:12:03.416Z,99.10
2023-02-13T07:14:49.472Z,99.40
2023-02-13T07:17:36.043Z,99.40
2023-02-13T07:20:22.011Z,99.50
2023-02-13T07:23:08.054Z,99.50
2023-02-13T07:25:54.193Z,99.50
2023-02-13T07:28:40.210Z,99.50
2023-02-13T07:31:26.902Z,99.70
2023-02-13T07:34:13.040Z,99.70
2023-02-13T07:36:59.009Z,99.70
2023-02-13T07:39:45.045Z,99.60
2023-02-13T07:42:34.799Z,99.30
2023-02-13T07:45:20.951Z,99.30
2023-02-13T07:48:06.996Z,99.10
2023-02-13T07:50:53.858Z,99.30
2023-02-13T07:53:39.648Z,99.40
2023-02-13T07:56:25.667Z,99.40
2023-02-13T07:59:11.815Z,99.30
2023-02-13T08:01:57.930Z,99.20
2023-02-13T08:04:46.303Z,99.20
2023-02-13T08:07:32.467Z,99.40
2023-02-13T08:10:36.787Z,99.60
2023-02-13T08:13:22.691Z,99.30
2023-02-13T08:16:08.808Z,99.40
2023-02-13T08:18:54.964Z,99.30
2023-02-13T08:21:41.112Z,99.10
2023-02-13T08:24:27.626Z,99.00
2023-02-13T08:27:15.749Z,99.10
2023-02-13T08:30:03.225Z,99.00
2023-02-13T08:32:54.124Z,98.90
2023-02-13T08:35:40.996Z,98.90
2023-02-13T08:38:26.893Z,99.00
2023-02-13T08:41:13.499Z,99.10
2023-02-13T08:43:59.662Z,99.10
2023-02-13T08:46:45.652Z,99.20
2023-02-13T08:49:31.590Z,98.90
2023-02-13T08:52:17.608Z,99.00
2023-02-13T08:55:03.876Z,99.00
2023-02-13T08:57:50.080Z,99.00
2023-02-13T09:00:36.058Z,99.10
2023-02-13T09:03:22.142Z,98.80
2023-02-13T09:06:08.347Z,98.70
2023-02-13T09:08:55.107Z,98.80
2023-02-13T09:11:41.064Z,98.80
2023-02-13T09:14:27.233Z,98.80
2023-02-13T09:17:14.476Z,98.90
2023-02-13T09:20:00.531Z,98.90
2023-02-13T09:22:46.506Z,98.80
2023-02-13T09:25:32.518Z,98.80
2023-02-13T09:28:18.653Z,98.80
2023-02-13T09:31:10.144Z,98.60
2023-02-13T09:33:56.199Z,98.50
2023-02-13T09:36:42.181Z,98.60
2023-02-13T09:39:28.124Z,98.50
2023-02-13T09:42:36.949Z,98.80
2023-02-13T09:45:23.164Z,98.70
2023-02-13T09:48:23.230Z,99.00
2023-02-13T09:51:16.104Z,98.60
2023-02-13T09:54:06.277Z,98.40
2023-02-13T09:57:02.949Z,98.60
2023-02-13T10:00:01.139Z,98.80
2023-02-13T10:02:58.964Z,98.80
2023-02-13T10:06:08.582Z,98.70
2023-02-13T10:09:06.867Z,98.50
2023-02-13T10:12:08.097Z,98.40
2023-02-13T10:15:06.625Z,98.40
2023-02-13T10:18:06.746Z,98.30
2023-02-13T10:20:56.521Z,98.30
2023-02-13T10:24:05.691Z,98.30
2023-02-13T10:26:52.706Z,98.10
2023-02-13T10:30:04.311Z,97.80
2023-02-13T10:33:19.654Z,97.70
2023-02-13T10:36:24.378Z,97.60
2023-02-13T10:39:26.533Z,97.40
2023-02-13T10:42:18.557Z,98.00
2023-02-13T10:45:14.066Z,97.70
2023-02-13T10:48:12.725Z,97.90
2023-02-13T10:51:08.163Z,97.70
2023-02-13T10:53:57.177Z,97.70
2023-02-13T10:57:10.904Z,97.30
2023-02-13T11:00:09.255Z,97.60
2023-02-13T11:02:56.944Z,97.60
2023-02-13T11:05:43.668Z,97.30
2023-02-13T11:08:43.230Z,97.30
2023-02-13T11:11:32.418Z,97.00
2023-02-13T11:14:21.415Z,97.30
2023-02-13T11:17:17.233Z,97.20
2023-02-13T11:20:22.950Z,96.90
2023-02-13T11:23:32.203Z,96.50
2023-02-13T11:26:23.153Z,96.50
2023-02-13T11:29:27.648Z,96.50
2023-02-13T11:32:28.258Z,96.70
2023-02-13T11:35:35.234Z,96.50
2023-02-13T11:38:24.125Z,96.50
2023-02-13T11:41:13.287Z,96.50
2023-02-13T11:44:02.469Z,96.50
2023-02-13T11:46:50.980Z,96.60
2023-02-13T11:49:41.456Z,96.90
2023-02-13T11:52:53.854Z,97.10
2023-02-13T11:55:42.726Z,96.90
2023-02-13T11:58:30.882Z,96.40
2023-02-13T12:01:20.230Z,96.60
2023-02-13T12:04:16.241Z,96.20
2023-02-13T12:07:05.373Z,96.00
2023-02-13T12:09:59.185Z,96.00
2023-02-13T12:13:23.244Z,95.90
2023-02-13T12:16:40.479Z,95.70
2023-02-13T12:19:35.442Z,95.60
2023-02-13T12:22:39.954Z,95.60
2023-02-13T12:25:48.821Z,95.70
2023-02-13T12:28:43.740Z,95.70
2023-02-13T12:31:33.076Z,95.60
2023-02-13T12:34:28.725Z,95.40
2023-02-13T12:37:35.075Z,95.70
2023-02-13T12:40:58.228Z,95.60
2023-02-13T12:44:17.257Z,95.40
2023-02-13T12:47:06.628Z,95.40
2023-02-13T12:50:17.945Z,95.80
2023-02-13T12:53:27.494Z,95.80
2023-02-13T12:56:23.579Z,94.80
2023-02-13T12:59:33.846Z,95.20
2023-02-13T13:02:23.111Z,94.70
2023-02-13T13:05:17.360Z,94.70
2023-02-13T13:08:12.379Z,94.80
2023-02-13T13:11:13.805Z,94.80
2023-02-13T13:14:27.171Z,94.70
2023-02-13T13:17:25.776Z,94.70
2023-02-13T13:20:14.433Z,95.10
2023-02-13T13:23:11.424Z,95.00
2023-02-13T13:26:21.351Z,95.20
2023-02-13T13:29:21.262Z,95.20
2023-02-13T13:36:18.306Z,95.50
2023-02-13T13:39:26.937Z,95.50
2023-02-13T13:42:35.343Z,95.70
2023-02-13T13:45:54.637Z,95.30
2023-02-13T13:49:11.404Z,95.50
2023-02-13T13:52:22.009Z,95.60
2023-02-13T13:55:28.126Z,95.90
2023-02-13T13:58:24.981Z,95.90
2023-02-13T14:01:24.272Z,95.90
2023-02-13T14:04:32.355Z,96.10
2023-02-13T14:07:24.456Z,95.90
2023-02-13T14:10:25.313Z,95.90
2023-02-13T14:13:30.505Z,95.80
2023-02-13T14:16:44.448Z,96.00
2023-02-13T14:19:32.815Z,96.30
2023-02-13T14:22:19.431Z,96.00
2023-02-13T14:25:26.924Z,95.70
2023-02-13T14:28:34.437Z,95.90
2023-02-13T14:31:29.414Z,96.00
2023-02-13T14:34:16.951Z,96.20
2023-02-13T14:37:21.105Z,96.20
2023-02-13T14:40:17.525Z,96.50
2023-02-13T14:43:22.491Z,95.90
2023-02-13T14:46:08.502Z,95.90
2023-02-13T14:49:06.956Z,95.90
2023-02-13T14:52:06.111Z,96.10
2023-02-13T14:55:15.741Z,96.00
2023-02-13T14:58:10.871Z,96.00
2023-02-13T15:01:15.622Z,96.00
2023-02-13T15:04:16.985Z,96.30
2023-02-13T15:07:06.965Z,96.20
2023-02-13T15:09:59.200Z,96.40
2023-02-13T15:12:45.398Z,96.20
2023-02-13T15:15:35.132Z,96.30
2023-02-13T15:18:24.672Z,95.90
2023-02-13T15:21:20.924Z,96.10
2023-02-13T15:24:14.503Z,96.20
2023-02-13T15:27:03.983Z,96.40
2023-02-13T15:30:02.381Z,96.30
2023-02-13T15:32:58.620Z,96.30
2023-02-13T15:35:45.212Z,96.10
2023-02-13T15:38:36.443Z,96.20
2023-02-13T15:41:28.034Z,96.20
2023-02-13T15:44:26.426Z,96.20
2023-02-13T15:47:27.648Z,96.40
2023-02-13T15:50:35.953Z,96.60
2023-02-13T15:53:22.350Z,96.60
2023-02-13T15:56:15.076Z,96.60
2023-02-13T15:59:01.499Z,96.60
2023-02-13T16:01:49.784Z,96.60
2023-02-13T16:04:37.385Z,96.60
2023-02-13T16:07:23.421Z,96.60
2023-02-13T16:10:25.995Z,96.70
2023-02-13T16:13:17.837Z,96.60
2023-02-13T16:16:10.762Z,96.80
2023-02-13T16:18:57.006Z,96.80
2023-02-13T16:21:43.399Z,97.00
2023-02-13T16:24:29.977Z,97.20
2023-02-13T16:27:17.011Z,97.30
2023-02-13T16:30:07.526Z,97.40
2023-02-13T16:33:18.944Z,97.40
2023-02-13T16:36:19.891Z,97.40
2023-02-13T16:39:21.259Z,97.30
2023-02-13T16:42:19.606Z,97.30
2023-02-13T16:45:22.810Z,97.30
2023-02-13T16:48:15.044Z,97.50
2023-02-13T16:51:01.085Z,97.60
2023-02-13T16:53:47.631Z,97.50
2023-02-13T16:56:41.796Z,97.40
2023-02-13T16:59:29.722Z,97.50
2023-02-13T17:02:33.719Z,97.50
2023-02-13T17:05:28.258Z,97.40
2023-02-13T17:08:14.186Z,97.50
2023-02-13T17:11:06.995Z,97.40
2023-02-13T17:13:53.149Z,97.60
2023-02-13T17:16:39.137Z,97.40
2023-02-13T17:19:25.082Z,97.40
2023-02-13T17:22:39.531Z,97.50
2023-02-13T17:25:32.153Z,97.50
2023-02-13T17:28:21.250Z,97.40
2023-02-13T17:31:11.791Z,97.60
2023-02-13T17:33:58.218Z,97.40
2023-02-13T17:36:44.696Z,97.50
2023-02-13T17:39:31.483Z,97.50
2023-02-13T17:42:24.265Z,97.60
2023-02-13T17:45:14.116Z,97.60
2023-02-13T17:48:00.230Z,97.70
2023-02-13T17:50:51.034Z,97.80
2023-02-13T17:53:37.148Z,97.90
2023-02-13T17:56:23.631Z,97.90
2023-02-13T17:59:09.531Z,97.80
2023-02-13T18:01:55.503Z,97.90
2023-02-13T18:04:42.500Z,98.00
2023-02-13T18:07:29.619Z,97.90
2023-02-13T18:10:17.383Z,97.90
2023-02-13T18:13:06.588Z,98.00
2023-02-13T18:15:53.062Z,97.90
2023-02-13T18:18:39.032Z,98.00
2023-02-13T18:21:24.992Z,98.10
2023-02-13T18:24:10.896Z,98.20
2023-02-13T18:26:57.256Z,98.30
2023-02-13T18:29:43.688Z,98.40
2023-02-13T18:32:29.929Z,98.50
2023-02-13T18:35:17.532Z,98.50
2023-02-13T18:38:04.165Z,98.40
2023-02-13T18:40:50.134Z,98.40
2023-02-13T18:43:36.036Z,98.40
2023-02-13T18:46:23.729Z,98.30
2023-02-13T18:49:12.410Z,98.40
2023-02-13T18:51:58.644Z,98.60
2023-02-13T18:54:45.750Z,98.70
2023-02-13T18:57:32.428Z,98.80
2023-02-13T19:00:19.957Z,98.60
2023-02-13T19:03:05.799Z,98.40
2023-02-13T19:05:51.860Z,98.70
2023-02-13T19:08:37.980Z,98.70
2023-02-13T19:11:26.376Z,98.70
2023-02-13T19:14:13.859Z,98.60
2023-02-13T19:16:59.844Z,98.40
2023-02-13T19:19:48.349Z,98.60
2023-02-13T19:22:34.365Z,98.40
2023-02-13T19:25:22.300Z,98.70
2023-02-13T19:28:08.388Z,98.50
2023-02-13T19:30:54.437Z,98.60
2023-02-13T19:33:42.225Z,98.80
2023-02-13T19:36:30.223Z,98.70
2023-02-13T19:39:16.698Z,99.00
2023-02-13T19:42:03.201Z,98.90
2023-02-13T19:44:49.265Z,98.80
2023-02-13T19:47:35.275Z,98.70
2023-02-13T19:50:22.395Z,98.80
2023-02-13T19:53:08.524Z,98.60
2023-02-13T19:56:01.772Z,98.80
2023-02-13T19:58:47.601Z,98.90
2023-02-13T20:01:34.051Z,98.80
2023-02-13T20:04:20.310Z,99.10
2023-02-13T20:07:07.664Z,99.10
2023-02-13T20:09:53.970Z,99.10
2023-02-13T20:12:39.887Z,99.10
2023-02-13T20:15:26.040Z,99.50
2023-02-13T20:18:12.050Z,99.60
2023-02-13T20:20:58.202Z,99.70
2023-02-13T20:23:49.014Z,99.80
2023-02-13T20:26:35.654Z,99.60
2023-02-13T20:29:21.495Z,99.30
2023-02-13T20:32:07.847Z,99.30
2023-02-13T20:34:59.829Z,99.70
2023-02-13T20:37:46.453Z,99.90
2023-02-13T20:40:32.252Z,99.90
2023-02-13T20:43:20.459Z,99.80
2023-02-13T20:46:07.419Z,99.90
2023-02-13T20:48:53.701Z,99.80
2023-02-13T20:51:39.574Z,99.70
2023-02-13T20:54:25.530Z,99.70
2023-02-13T20:57:11.815Z,99.60
2023-02-13T20:59:58.986Z,99.40
2023-02-13T21:02:45.196Z,99.40
2023-02-13T21:05:31.564Z,99.70
2023-02-13T21:08:18.103Z,99.80
2023-02-13T21:11:06.901Z,99.60
2023-02-13T21:13:53.087Z,99.70
2023-02-13T21:16:40.444Z,99.90
2023-02-13T21:19:26.548Z,99.90
2023-02-13T21:22:12.805Z,99.80
2023-02-13T21:24:59.219Z,99.90
2023-02-13T21:27:45.699Z,99.90
2023-02-13T21:30:31.738Z,99.90
2023-02-13T21:33:17.942Z,99.70
2023-02-13T21:36:06.737Z,99.90
2023-02-13T21:38:52.607Z,99.90
2023-02-13T21:41:44.038Z,99.90
2023-02-13T21:44:30.328Z,99.90
2023-02-13T21:47:16.722Z,99.90
2023-02-13T21:50:02.886Z,99.90
2023-02-13T21:52:48.869Z,99.90
2023-02-13T21:55:35.002Z,99.90
2023-02-13T21:58:20.973Z,99.90
2023-02-13T22:01:26.480Z,99.90
2023-02-13T22:04:13.438Z,99.90
2023-02-13T22:06:59.355Z,99.90
2023-02-13T22:09:45.450Z,99.90
2023-02-13T22:12:31.315Z,99.90
2023-02-13T22:15:17.174Z,99.90
2023-02-13T22:18:03.179Z,99.90
2023-02-13T22:20:49.113Z,99.90
2023-02-13T22:23:36.908Z,99.90
2023-02-13T22:26:28.610Z,99.90
2023-02-13T22:29:16.316Z,99.90
2023-02-13T22:32:02.386Z,99.90
2023-02-13T22:34:48.618Z,99.90
2023-02-13T22:37:34.740Z,99.90
2023-02-13T22:40:20.438Z,99.90
2023-02-13T22:43:06.609Z,99.90
2023-02-13T22:45:52.867Z,99.90
2023-02-13T22:48:40.922Z,99.90
2023-02-13T22:51:30.368Z,99.90
2023-02-13T22:54:16.634Z,99.90
2023-02-13T22:57:02.857Z,99.90
2023-02-13T22:59:49.308Z,99.90
2023-02-13T23:02:36.158Z,99.90
2023-02-13T23:05:22.120Z,99.90
2023-02-13T23:08:09.519Z,99.90
2023-02-13T23:11:18.697Z,99.90
2023-02-13T23:14:05.404Z,99.90
2023-02-13T23:17:10.309Z,99.90
2023-02-13T23:19:56.434Z,99.90
2023-02-13T23:22:42.431Z,99.90
2023-02-13T23:25:28.411Z,99.90
2023-02-13T23:28:14.355Z,99.90
2023-02-13T23:31:01.575Z,99.90
2023-02-13T23:33:47.931Z,99.90
2023-02-13T23:36:34.352Z,99.90
2023-02-13T23:39:21.110Z,99.90
2023-02-13T23:42:07.248Z,99.90
2023-02-13T23:44:53.260Z,99.90
2023-02-13T23:47:39.299Z,99.90
2023-02-13T23:50:25.196Z,99.90
2023-02-13T23:53:11.144Z,99.90
2023-02-13T23:55:57.161Z,99.70
2023-02-13T23:58:43.182Z,99.70
